No data was retrieved for https://query.yahooapis.com/v1/public/yql?q=select+%2A+from+weather.forecast+where+woeid%3D860853&format=xml&u=c



Visit our other weather sites:

Template documentation
and downloads

And another site



Nearby METAR Reports

   
EBAW - Antwerp
Updated: 27-11-2020 04:20
NOT Current
Mist, Overcast  
Mist, Overcast  
   Wind: varies 1 m/s
Wind: varies 1 m/s
Temperature: 8°C
Dew Point: 6°C
Humidity: 87%
Barometer: 1019 hPa
Clouds: Overcast
Visibility: 3 km
Cloud details: Overcast 400 ft
EBAW 270320Z AUTO VRB02KT 2700 BR OVC004/// 08/06 Q1019
EBLG - Liège
Updated: 27-11-2020 04:20
NOT Current
Few Clouds  
Few Clouds  
   Wind: South 2.1 m/s
Wind: South 2.1 m/s
Temperature: 5°C
Wind Chill: 3°C
Dew Point: 3°C
Humidity: 87%
Barometer: 1019 hPa
Clouds: Few Clouds
Visibility: More than 10 km
Cloud details: Few Clouds 3200 ft
EBLG 270320Z 17004KT 140V210 9999 FEW032 05/03 Q1019 NOSIG
EBCV - Mons/Bergen
Updated: 27-11-2020 04:25
NOT Current
  
  
   Wind: varies 0.5 m/s
Wind: varies 0.5 m/s
Temperature: 4°C
Dew Point: 4°C
Humidity: 100%
Barometer: 1019 hPa
EBCV 270325Z AUTO VRB01KT //// /// 04/04 Q1019
EHBK - Maastricht
Updated: 27-11-2020 04:25
NOT Current
Partly Cloudy  
Partly Cloudy  
   Wind: SSE 1 m/s
Wind: SSE 1 m/s
Temperature: 4°C
Dew Point: 3°C
Humidity: 93%
Barometer: 1019 hPa
Clouds: Partly Cloudy
Visibility: 7 km
Cloud details: Partly Cloudy
EHBK 270325Z AUTO 16002KT 7000 NSC 04/03 Q1019
ELLX - Luxemburg
Updated: 27-11-2020 04:20
NOT Current
Partly Cloudy  
Partly Cloudy  
   Wind: ENE 2.1 m/s
Wind: ENE 2.1 m/s
Temperature: 0°C
Wind Chill: -3°C
Dew Point: -1°C
Humidity: 93%
Barometer: 1019 hPa
Clouds: Partly Cloudy
Visibility: 1 km
Cloud details: Partly Cloudy
ELLX 270320Z 06004KT 1000 R06/1100VP2000U SCT000 M00/M01 Q1019 NOSIG
EBOS - Oostende
Updated: 27-11-2020 04:20
NOT Current
Mostly Cloudy  
Mostly Cloudy  
   Wind: East 2.6 m/s
Wind: East 2.6 m/s
Temperature: 7°C
Wind Chill: 5°C
Dew Point: 6°C
Humidity: 93%
Barometer: 1020 hPa
Clouds: Mostly Cloudy
Visibility: 9 km
Cloud details: Mostly Cloudy 2500 ft
EBOS 270320Z 09005KT 9000 BKN025 07/06 Q1020 TEMPO 3500 BR BKN015

Script developed by  Saratoga-weather.org Adapted for the template by  Weerstation Leuven

You find our weather info also at:

Weather Underground

Equipment we use:

Weather-station
Davis Vantage Vue

Weather-program
WeatherCat

Provider
one.com

Davis Vantage Vue

WeatherCat

one.com